createdAt,value
2016-10-05T00:03:18.977Z,0
2016-10-05T00:08:19.534Z,0
2016-10-05T00:13:19.481Z,0
2016-10-05T00:18:19.439Z,0
2016-10-05T00:23:19.389Z,0
2016-10-05T00:28:19.329Z,0
2016-10-05T00:33:18.974Z,0
2016-10-05T00:38:19.221Z,0
2016-10-05T00:43:18.865Z,0
2016-10-05T00:48:18.816Z,0
2016-10-05T00:53:18.459Z,0
2016-10-05T00:58:18.710Z,0
2016-10-05T01:03:18.969Z,0
2016-10-05T01:08:18.612Z,0
2016-10-05T01:13:18.554Z,0
2016-10-05T01:18:18.209Z,0
2016-10-05T01:23:18.757Z,0
2016-10-05T01:28:18.391Z,0
2016-10-05T01:33:18.337Z,0
2016-10-05T01:38:18.283Z,0
2016-10-05T01:43:18.540Z,0
2016-10-05T01:48:18.479Z,0
2016-10-05T01:53:18.140Z,0
2016-10-05T01:58:18.382Z,0
2016-10-05T02:03:18.019Z,0
2016-10-05T02:08:17.976Z,0
2016-10-05T02:13:17.913Z,0
2016-10-05T02:18:18.172Z,0
2016-10-05T02:23:17.804Z,0
2016-10-05T02:28:17.756Z,0
2016-10-05T02:33:18.004Z,0
2016-10-05T02:38:17.336Z,0
2016-10-05T02:43:16.984Z,0
2016-10-05T02:48:17.541Z,0
2016-10-05T02:53:17.787Z,0
2016-10-05T02:58:17.739Z,0
2016-10-05T03:03:17.377Z,0
2016-10-05T03:08:17.622Z,0
2016-10-05T03:13:17.268Z,0
2016-10-05T03:18:17.216Z,0
2016-10-05T03:23:17.172Z,0
2016-10-05T03:28:17.114Z,0
2016-10-05T03:33:17.064Z,0
2016-10-05T03:38:17.002Z,0
2016-10-05T03:43:16.943Z,0
2016-10-05T03:48:16.583Z,0
2016-10-05T03:53:17.145Z,0
2016-10-05T03:58:17.099Z,0
2016-10-05T04:03:16.431Z,0
2016-10-05T04:08:16.999Z,0
2016-10-05T04:13:16.317Z,0
2016-10-05T04:18:16.869Z,0
2016-10-05T04:23:16.203Z,0
2016-10-05T04:28:16.142Z,0
2016-10-05T04:33:16.096Z,0
2016-10-05T04:38:16.338Z,0
2016-10-05T04:43:16.589Z,0
2016-10-05T04:48:16.225Z,0
2016-10-05T04:53:16.176Z,0
2016-10-05T04:58:16.423Z,0
2016-10-05T05:03:16.062Z,0
2016-10-05T05:08:16.003Z,0
2016-10-05T05:13:16.264Z,0
2016-10-05T05:18:16.192Z,0
2016-10-05T05:23:16.156Z,0
2016-10-05T05:28:15.479Z,0
2016-10-05T05:33:16.043Z,0
2016-10-05T05:38:15.972Z,0
2016-10-05T05:43:15.623Z,0
2016-10-05T05:48:15.562Z,0
2016-10-05T05:53:15.500Z,0
2016-10-05T05:58:15.144Z,0
2016-10-05T06:03:15.711Z,0
2016-10-05T06:08:15.633Z,0
2016-10-05T06:13:14.663Z,0
2016-10-05T06:18:15.541Z,0
2016-10-05T06:23:15.171Z,0
2016-10-05T06:28:15.410Z,0
2016-10-05T06:33:15.056Z,0
2016-10-05T06:38:15.297Z,0
2016-10-05T06:43:15.239Z,0
2016-10-05T06:48:15.191Z,0
2016-10-05T06:53:14.832Z,0
2016-10-05T06:58:15.062Z,0
2016-10-05T07:03:14.707Z,0
2016-10-05T07:08:14.643Z,0
2016-10-05T07:13:14.888Z,0
2016-10-05T07:18:14.545Z,0
2016-10-05T07:23:14.474Z,0
2016-10-05T07:28:14.430Z,0
2016-10-05T07:33:14.373Z,0
2016-10-05T07:38:14.012Z,0
2016-10-05T07:43:14.566Z,0
2016-10-05T07:48:14.207Z,0
2016-10-05T07:53:13.855Z,0
2016-10-05T07:58:14.094Z,0
2016-10-05T08:03:13.735Z,0
2016-10-05T08:08:13.696Z,0
2016-10-05T08:13:13.636Z,0
2016-10-05T08:18:13.877Z,0
2016-10-05T08:23:14.117Z,0
2016-10-05T08:28:13.770Z,0
2016-10-05T08:33:14.018Z,5
2016-10-05T08:38:13.655Z,5
2016-10-05T08:43:13.600Z,5
2016-10-05T08:48:13.851Z,5
2016-10-05T08:53:13.499Z,5
2016-10-05T08:58:13.749Z,5
2016-10-05T09:03:13.698Z,5
2016-10-05T09:08:13.351Z,5
2016-10-05T09:13:13.296Z,5
2016-10-05T09:18:13.245Z,10
2016-10-05T09:23:13.183Z,10
2016-10-05T09:28:12.832Z,10
2016-10-05T09:33:13.096Z,10
2016-10-05T09:38:12.725Z,10
2016-10-05T09:43:13.284Z,10
2016-10-05T09:48:12.946Z,10
2016-10-05T09:53:13.196Z,10
2016-10-05T09:58:13.156Z,0
2016-10-05T10:03:13.133Z,10
2016-10-05T10:08:12.734Z,0
2016-10-05T10:13:12.673Z,0
2016-10-05T10:18:12.955Z,5
2016-10-05T10:23:12.599Z,0
2016-10-05T10:28:12.529Z,0
2016-10-05T10:33:12.482Z,0
2016-10-05T10:38:12.425Z,5
2016-10-05T10:43:12.370Z,0
2016-10-05T10:48:12.338Z,0
2016-10-05T10:53:11.982Z,0
2016-10-05T10:58:12.238Z,5
2016-10-05T11:03:11.292Z,5
2016-10-05T11:08:12.449Z,5
2016-10-05T11:13:12.407Z,10
2016-10-05T11:18:12.060Z,0
2016-10-05T11:23:11.998Z,0
2016-10-05T11:28:11.943Z,5
2016-10-05T11:33:11.585Z,5
2016-10-05T11:38:11.533Z,5
2016-10-05T11:43:11.790Z,10
2016-10-05T11:48:11.746Z,5
2016-10-05T11:53:12.004Z,5
2016-10-05T11:58:11.647Z,5
2016-10-05T12:03:11.610Z,10
2016-10-05T12:08:11.551Z,5
2016-10-05T12:13:11.499Z,5
2016-10-05T12:18:11.754Z,10
2016-10-05T12:23:11.400Z,5
2016-10-05T12:28:11.357Z,5
2016-10-05T12:33:11.609Z,5
2016-10-05T12:38:10.652Z,5
2016-10-05T12:43:11.206Z,10
2016-10-05T12:48:11.166Z,10
2016-10-05T12:53:10.803Z,35
2016-10-05T12:58:11.058Z,45
2016-10-05T13:03:11.320Z,50
2016-10-05T13:08:11.270Z,50
2016-10-05T13:13:11.219Z,50
2016-10-05T13:18:11.170Z,60
2016-10-05T13:23:10.838Z,75
2016-10-05T13:28:10.782Z,90
2016-10-05T13:33:10.733Z,10
2016-10-05T13:38:10.995Z,125
2016-10-05T13:43:10.336Z,145
2016-10-05T13:48:10.597Z,150
2016-10-05T13:53:10.845Z,130
2016-10-05T13:58:10.491Z,95
2016-10-05T14:03:10.749Z,60
2016-10-05T14:08:09.787Z,55
2016-10-05T14:13:09.737Z,50
2016-10-05T14:18:10.305Z,60
2016-10-05T14:23:10.251Z,0
2016-10-05T14:28:09.917Z,55
2016-10-05T14:33:09.865Z,60
2016-10-05T14:38:10.433Z,65
2016-10-05T14:43:09.763Z,70
2016-10-05T14:48:10.017Z,50
2016-10-05T14:53:09.681Z,50
2016-10-05T14:58:10.241Z,40
2016-10-05T15:03:09.872Z,30
2016-10-05T15:08:09.221Z,20
2016-10-05T15:13:09.475Z,10
2016-10-05T15:18:09.451Z,10
2016-10-05T15:23:10.007Z,5
2016-10-05T15:28:09.664Z,0
2016-10-05T15:33:09.601Z,0
2016-10-05T15:38:09.270Z,0
2016-10-05T15:43:09.514Z,0
2016-10-05T15:48:08.860Z,0
2016-10-05T15:53:09.437Z,0
2016-10-05T15:58:09.679Z,0
2016-10-05T16:03:09.333Z,0
2016-10-05T16:08:09.279Z,0
2016-10-05T16:13:09.537Z,0
2016-10-05T16:18:09.192Z,0
2016-10-05T16:23:09.162Z,0
2016-10-05T16:28:09.099Z,0
2016-10-05T16:33:08.761Z,0
2016-10-05T16:38:09.009Z,0
2016-10-05T16:43:08.645Z,0
2016-10-05T16:48:09.220Z,0
2016-10-05T16:53:08.869Z,0
2016-10-05T16:58:08.815Z,0
2016-10-05T17:03:08.509Z,0
2016-10-05T17:08:09.049Z,0
2016-10-05T17:13:08.681Z,0
2016-10-05T17:18:08.947Z,0
2016-10-05T17:23:08.590Z,0
2016-10-05T17:28:08.546Z,0
2016-10-05T17:33:08.831Z,0
2016-10-05T17:38:08.476Z,0
2016-10-05T17:43:07.810Z,0
2016-10-05T17:48:08.357Z,0
2016-10-05T17:53:08.015Z,0
2016-10-05T17:58:08.272Z,0
2016-10-05T18:03:07.947Z,0
2016-10-05T18:08:07.879Z,0
2016-10-05T18:13:07.844Z,0
2016-10-05T18:18:08.090Z,0
2016-10-05T18:23:08.343Z,0
2016-10-05T18:28:08.286Z,0
2016-10-05T18:33:07.960Z,0
2016-10-05T18:38:07.896Z,0
2016-10-05T18:43:08.166Z,0
2016-10-05T18:48:07.492Z,0
2016-10-05T18:53:08.092Z,0
2016-10-05T18:58:08.020Z,0
2016-10-05T19:03:07.696Z,0
2016-10-05T19:08:07.917Z,0
2016-10-05T19:13:07.880Z,0
2016-10-05T19:18:07.815Z,0
2016-10-05T19:23:07.486Z,0
2016-10-05T19:28:07.419Z,0
2016-10-05T19:33:07.375Z,0
2016-10-05T19:38:07.330Z,0
2016-10-05T19:43:07.594Z,0
2016-10-05T19:48:06.632Z,0
2016-10-05T19:53:07.183Z,0
2016-10-05T19:58:07.454Z,0
2016-10-05T20:03:07.095Z,0
2016-10-05T20:08:07.054Z,0
2016-10-05T20:13:07.010Z,0
2016-10-05T20:18:06.972Z,0
2016-10-05T20:23:06.923Z,0
2016-10-05T20:28:06.892Z,0
2016-10-05T20:33:07.119Z,0
2016-10-05T20:38:06.767Z,0
2016-10-05T20:43:07.024Z,0
2016-10-05T20:48:06.366Z,0
2016-10-05T20:53:06.614Z,0
2016-10-05T20:58:06.585Z,0
2016-10-05T21:03:06.840Z,0
2016-10-05T21:08:06.772Z,0
2016-10-05T21:13:06.728Z,0
2016-10-05T21:18:06.072Z,0
2016-10-05T21:23:06.024Z,0
2016-10-05T21:28:05.965Z,0
2016-10-05T21:33:06.523Z,0
2016-10-05T21:38:06.480Z,0
2016-10-05T21:43:06.124Z,0
2016-10-05T21:48:06.378Z,0
2016-10-05T21:53:06.342Z,0
2016-10-05T21:58:05.372Z,0
2016-10-05T22:03:05.630Z,0
2016-10-05T22:08:05.575Z,0
2016-10-05T22:13:05.521Z,0
2016-10-05T22:18:05.484Z,0
2016-10-05T22:23:06.047Z,0
2016-10-05T22:28:05.675Z,0
2016-10-05T22:33:05.622Z,0
2016-10-05T22:38:05.596Z,0
2016-10-05T22:43:05.207Z,0
2016-10-05T22:48:05.464Z,0
2016-10-05T22:53:05.406Z,0
2016-10-05T22:58:05.661Z,0
2016-10-05T23:03:05.316Z,0
2016-10-05T23:08:05.241Z,0
2016-10-05T23:13:05.189Z,0
2016-10-05T23:18:05.440Z,0
2016-10-05T23:23:05.081Z,0
2016-10-05T23:28:04.724Z,0
2016-10-05T23:33:05.299Z,0
2016-10-05T23:38:04.316Z,0
2016-10-05T23:43:04.880Z,0
2016-10-05T23:48:05.123Z,0
2016-10-05T23:53:04.762Z,0
2016-10-05T23:58:04.715Z,0
